createdAt,value
2022-12-25T00:01:32.522Z,98022.94
2022-12-25T00:05:40.288Z,98024.59
2022-12-25T00:09:43.791Z,98025.53
2022-12-25T00:13:47.404Z,98019.53
2022-12-25T00:17:51.043Z,98016.13
2022-12-25T00:21:55.909Z,98026.53
2022-12-25T00:25:59.783Z,98025.19
2022-12-25T00:30:03.414Z,98025.47
2022-12-25T00:34:06.894Z,98031.09
2022-12-25T00:38:12.019Z,98028.78
2022-12-25T00:42:30.584Z,98022.06
2022-12-25T00:46:34.280Z,98017.31
2022-12-25T00:50:40.010Z,98018.97
2022-12-25T00:54:45.078Z,98021.47
2022-12-25T00:58:48.599Z,98025.75
2022-12-25T01:02:52.177Z,98031.38
2022-12-25T01:06:56.080Z,98036.56
2022-12-25T01:11:04.015Z,98042.84
2022-12-25T01:15:09.819Z,98050.75
2022-12-25T01:19:13.392Z,98060.56
2022-12-25T01:23:17.367Z,98074.13
2022-12-25T01:27:22.321Z,98079.84
2022-12-25T01:31:26.627Z,98075.47
2022-12-25T01:35:30.466Z,98070.13
2022-12-25T01:39:34.059Z,98061.13
2022-12-25T01:44:00.286Z,98052.88
2022-12-25T01:48:07.668Z,98045.75
2022-12-25T01:52:17.532Z,98038.94
2022-12-25T01:56:26.780Z,98025.09
2022-12-25T02:00:31.941Z,98037.28
2022-12-25T02:04:43.961Z,98035.13
2022-12-25T02:08:50.347Z,98031.59
2022-12-25T02:12:54.660Z,98040.06
2022-12-25T02:17:07.715Z,98028.03
2022-12-25T02:21:28.129Z,98032.53
2022-12-25T02:25:44.907Z,98034.34
2022-12-25T02:30:01.560Z,98034.63
2022-12-25T02:34:13.025Z,98039.25
2022-12-25T02:38:21.841Z,98043.13
2022-12-25T02:43:00.177Z,98032.44
2022-12-25T02:47:25.087Z,98034.66
2022-12-25T02:51:49.071Z,98034.56
2022-12-25T02:56:11.586Z,98030.97
2022-12-25T03:00:39.118Z,98027.28
2022-12-25T03:05:03.244Z,98023.88
2022-12-25T03:09:27.320Z,98029.66
2022-12-25T03:13:34.719Z,98031.69
2022-12-25T03:17:37.155Z,98021.69
2022-12-25T03:21:59.647Z,98027.88
2022-12-25T03:26:21.598Z,98027.16
2022-12-25T03:30:46.523Z,98019.09
2022-12-25T03:35:17.331Z,98019.81
2022-12-25T03:39:47.679Z,98030.56
2022-12-25T03:44:12.696Z,98038.78
2022-12-25T03:48:44.249Z,98048.22
2022-12-25T03:53:06.959Z,98055.16
2022-12-25T03:57:29.961Z,98052.03
2022-12-25T04:01:50.550Z,98052.72
2022-12-25T04:06:11.261Z,98052.31
2022-12-25T04:10:31.808Z,98055.59
2022-12-25T04:14:54.133Z,98053.66
2022-12-25T04:19:14.991Z,98043.03
2022-12-25T04:23:35.606Z,98037.56
2022-12-25T04:27:56.281Z,98048.50
2022-12-25T04:32:18.011Z,98042.88
2022-12-25T04:36:21.427Z,98048.06
2022-12-25T04:40:24.824Z,98039.84
2022-12-25T04:44:28.225Z,98033.69
2022-12-25T04:48:35.060Z,98029.19
2022-12-25T04:52:38.798Z,98028.47
2022-12-25T04:56:45.766Z,98029.53
2022-12-25T05:00:50.585Z,98022.78
2022-12-25T05:04:54.981Z,98009.22
2022-12-25T05:08:58.238Z,98016.69
2022-12-25T05:13:01.454Z,98026.44
2022-12-25T05:17:04.704Z,98024.88
2022-12-25T05:21:09.273Z,98023.00
2022-12-25T05:25:12.586Z,98022.97
2022-12-25T05:29:15.946Z,98021.00
2022-12-25T05:33:19.136Z,98011.44
2022-12-25T05:37:23.615Z,98003.19
2022-12-25T05:41:33.822Z,98007.00
2022-12-25T05:45:37.830Z,98017.59
2022-12-25T05:49:40.953Z,98022.91
2022-12-25T05:53:45.412Z,98022.78
2022-12-25T05:57:48.979Z,98023.47
2022-12-25T06:01:52.353Z,98011.72
2022-12-25T06:05:56.116Z,98018.72
2022-12-25T06:10:00.525Z,98021.78
2022-12-25T06:14:03.847Z,98023.41
2022-12-25T06:18:07.141Z,98034.19
2022-12-25T06:22:10.326Z,98035.59
2022-12-25T06:26:18.480Z,98030.03
2022-12-25T06:30:21.683Z,98036.63
2022-12-25T06:34:25.413Z,98032.81
2022-12-25T06:38:29.766Z,98042.28
2022-12-25T06:42:34.522Z,98026.81
2022-12-25T06:46:37.703Z,98027.00
2022-12-25T06:50:44.322Z,98035.75
2022-12-25T06:54:48.764Z,98047.66
2022-12-25T06:58:55.569Z,98055.97
2022-12-25T07:02:58.929Z,98053.72
2022-12-25T07:07:08.440Z,98045.50
2022-12-25T07:11:12.390Z,98063.41
2022-12-25T07:15:17.319Z,98063.97
2022-12-25T07:19:20.611Z,98054.69
2022-12-25T07:23:23.771Z,98053.88
2022-12-25T07:27:27.215Z,98054.94
2022-12-25T07:31:31.908Z,98066.13
2022-12-25T07:35:35.161Z,98071.19
2022-12-25T07:39:39.210Z,98079.41
2022-12-25T07:43:43.003Z,98082.16
2022-12-25T07:47:47.933Z,98077.16
2022-12-25T07:51:50.915Z,98075.69
2022-12-25T07:56:01.162Z,98079.38
2022-12-25T08:00:07.750Z,98075.31
2022-12-25T08:04:13.026Z,98083.22
2022-12-25T08:08:16.096Z,98076.84
2022-12-25T08:12:19.490Z,98079.84
2022-12-25T08:16:23.091Z,98067.44
2022-12-25T08:20:27.809Z,98068.53
2022-12-25T08:24:31.213Z,98067.06
2022-12-25T08:28:35.906Z,98063.53
2022-12-25T08:32:39.215Z,98062.69
2022-12-25T08:36:43.691Z,98063.09
2022-12-25T08:40:47.028Z,98057.78
2022-12-25T08:44:50.329Z,98063.38
2022-12-25T08:48:53.716Z,98062.31
2022-12-25T08:52:58.410Z,98056.81
2022-12-25T08:57:03.057Z,98050.50
2022-12-25T09:01:08.213Z,98048.25
2022-12-25T09:05:12.011Z,98059.31
2022-12-25T09:09:16.540Z,98062.69
2022-12-25T09:13:19.528Z,98060.19
2022-12-25T09:17:22.743Z,98052.31
2022-12-25T09:21:25.963Z,98046.13
2022-12-25T09:25:30.568Z,98042.09
2022-12-25T09:29:33.692Z,98039.78
2022-12-25T09:33:36.796Z,98032.13
2022-12-25T09:37:40.661Z,98031.50
2022-12-25T09:41:55.097Z,98030.31
2022-12-25T09:46:00.179Z,98026.97
2022-12-25T09:50:09.179Z,98028.78
2022-12-25T09:54:18.040Z,98023.50
2022-12-25T09:58:22.755Z,98025.41
2022-12-25T10:02:56.701Z,98012.84
2022-12-25T10:07:11.894Z,98006.44
2022-12-25T10:11:25.174Z,98008.97
2022-12-25T10:15:39.234Z,97999.06
2022-12-25T10:19:54.693Z,97992.91
2022-12-25T10:24:08.487Z,97998.84
2022-12-25T10:33:36.137Z,97992.56
2022-12-25T10:37:39.907Z,97987.16
2022-12-25T10:41:58.237Z,97979.03
2022-12-25T10:46:01.530Z,97980.78
2022-12-25T10:50:13.078Z,97978.50
2022-12-25T10:54:23.083Z,97979.75
2022-12-25T10:58:26.400Z,97958.09
2022-12-25T11:02:32.296Z,97935.47
2022-12-25T11:06:37.161Z,97940.16
2022-12-25T11:10:44.475Z,97953.28
2022-12-25T11:14:55.549Z,97952.38
2022-12-25T11:18:59.972Z,97941.16
2022-12-25T11:23:11.518Z,97932.59
2022-12-25T11:27:23.840Z,97923.84
2022-12-25T11:31:33.992Z,97919.06
2022-12-25T11:35:47.993Z,97921.69
2022-12-25T11:39:52.770Z,97915.00
2022-12-25T11:43:59.665Z,97905.31
2022-12-25T11:48:08.878Z,97904.63
2022-12-25T11:52:14.960Z,97899.94
2022-12-25T11:56:23.169Z,97896.50
2022-12-25T12:00:26.913Z,97893.88
2022-12-25T12:04:42.054Z,97889.25
2022-12-25T12:08:49.345Z,97859.56
2022-12-25T12:13:00.184Z,97854.66
2022-12-25T12:17:03.555Z,97844.84
2022-12-25T12:21:20.945Z,97841.66
2022-12-25T12:25:24.547Z,97839.59
2022-12-25T12:29:31.471Z,97836.72
2022-12-25T12:33:38.859Z,97833.84
2022-12-25T12:37:43.485Z,97820.84
2022-12-25T12:41:49.698Z,97819.94
2022-12-25T12:45:59.477Z,97816.06
2022-12-25T12:50:03.568Z,97804.47
2022-12-25T12:54:18.476Z,97798.22
2022-12-25T12:58:31.292Z,97792.16
2022-12-25T13:03:02.192Z,97787.63
2022-12-25T13:07:13.654Z,97776.78
2022-12-25T13:11:21.547Z,97771.78
2022-12-25T13:15:28.470Z,97766.72
2022-12-25T13:19:33.246Z,97772.63
2022-12-25T13:23:39.438Z,97774.41
2022-12-25T13:27:42.493Z,97783.44
2022-12-25T13:31:45.766Z,97787.97
2022-12-25T13:35:50.509Z,97779.63
2022-12-25T13:39:56.940Z,97791.41
2022-12-25T13:44:00.641Z,97791.06
2022-12-25T13:48:15.962Z,97793.31
2022-12-25T13:52:23.979Z,97782.31
2022-12-25T13:56:27.381Z,97786.75
2022-12-25T14:00:34.883Z,97774.41
2022-12-25T14:04:45.541Z,97768.91
2022-12-25T14:08:51.321Z,97759.84
2022-12-25T14:12:57.555Z,97768.19
2022-12-25T14:17:01.362Z,97753.06
2022-12-25T14:21:07.520Z,97749.97
2022-12-25T14:25:17.708Z,97749.19
2022-12-25T14:29:26.583Z,97757.50
2022-12-25T14:33:40.109Z,97765.03
2022-12-25T14:37:43.972Z,97767.00
2022-12-25T14:41:54.714Z,97769.31
2022-12-25T14:46:00.272Z,97761.28
2022-12-25T14:50:14.079Z,97769.00
2022-12-25T14:54:20.880Z,97770.63
2022-12-25T14:58:28.634Z,97775.78
2022-12-25T15:02:44.799Z,97763.09
2022-12-25T15:06:55.414Z,97757.03
2022-12-25T15:11:01.799Z,97763.03
2022-12-25T15:15:08.318Z,97758.16
2022-12-25T15:19:14.584Z,97749.94
2022-12-25T15:23:20.043Z,97736.34
2022-12-25T15:27:24.248Z,97727.00
2022-12-25T15:31:31.432Z,97727.38
2022-12-25T15:35:34.910Z,97737.53
2022-12-25T15:39:38.497Z,97740.41
2022-12-25T15:43:41.831Z,97728.00
2022-12-25T15:47:46.425Z,97726.53
2022-12-25T15:51:49.665Z,97725.06
2022-12-25T15:55:52.937Z,97722.09
2022-12-25T15:59:56.230Z,97721.06
2022-12-25T16:04:00.963Z,97720.34
2022-12-25T16:08:03.898Z,97712.81
2022-12-25T16:12:07.520Z,97702.78
2022-12-25T16:16:10.832Z,97710.69
2022-12-25T16:20:15.889Z,97724.88
2022-12-25T16:24:18.971Z,97728.66
2022-12-25T16:28:22.532Z,97725.63
2022-12-25T16:32:25.799Z,97725.00
2022-12-25T16:36:30.499Z,97734.47
2022-12-25T16:40:33.514Z,97735.34
2022-12-25T16:44:38.637Z,97741.28
2022-12-25T16:48:41.948Z,97742.00
2022-12-25T16:52:46.464Z,97743.69
2022-12-25T16:56:49.490Z,97734.16
2022-12-25T17:00:52.630Z,97726.28
2022-12-25T17:04:56.045Z,97720.81
2022-12-25T17:09:02.853Z,97733.78
2022-12-25T17:13:05.977Z,97740.63
2022-12-25T17:17:09.203Z,97731.19
2022-12-25T17:21:14.854Z,97726.97
2022-12-25T17:25:19.725Z,97724.66
2022-12-25T17:29:23.215Z,97730.41
2022-12-25T17:33:26.310Z,97723.19
2022-12-25T17:37:29.640Z,97725.69
2022-12-25T17:41:35.091Z,97718.47
2022-12-25T17:45:38.634Z,97714.13
2022-12-25T17:49:42.878Z,97713.06
2022-12-25T17:53:48.731Z,97710.34
2022-12-25T17:57:53.316Z,97719.09
2022-12-25T18:01:57.041Z,97726.31
2022-12-25T18:06:01.686Z,97723.50
2022-12-25T18:10:05.275Z,97733.16
2022-12-25T18:14:12.722Z,97730.72
2022-12-25T18:18:16.035Z,97732.88
2022-12-25T18:22:19.363Z,97730.69
2022-12-25T18:26:22.858Z,97720.59
2022-12-25T18:30:27.545Z,97718.53
2022-12-25T18:34:31.807Z,97715.78
2022-12-25T18:38:35.715Z,97709.81
2022-12-25T18:42:42.495Z,97712.81
2022-12-25T18:46:47.123Z,97712.81
2022-12-25T18:50:56.496Z,97722.09
2022-12-25T18:54:59.610Z,97722.69
2022-12-25T18:59:03.313Z,97721.88
2022-12-25T19:03:08.250Z,97722.00
2022-12-25T19:07:12.466Z,97707.97
2022-12-25T19:11:16.076Z,97717.25
2022-12-25T19:15:20.693Z,97736.28
2022-12-25T19:19:26.269Z,97737.06
2022-12-25T19:23:29.880Z,97722.38
2022-12-25T19:27:33.203Z,97718.69
2022-12-25T19:31:39.086Z,97720.69
2022-12-25T19:35:43.957Z,97710.34
2022-12-25T19:39:47.991Z,97710.34
2022-12-25T19:43:52.551Z,97705.38
2022-12-25T19:47:56.243Z,97713.41
2022-12-25T19:52:01.403Z,97722.91
2022-12-25T19:56:05.474Z,97735.81
2022-12-25T20:00:10.956Z,97729.41
2022-12-25T20:04:14.874Z,97739.31
2022-12-25T20:08:19.806Z,97728.41
2022-12-25T20:12:23.570Z,97734.66
2022-12-25T20:16:27.435Z,97726.22
2022-12-25T20:20:31.364Z,97722.50
2022-12-25T20:24:36.424Z,97732.97
2022-12-25T20:28:41.924Z,97738.16
2022-12-25T20:32:50.326Z,97745.78
2022-12-25T20:36:56.673Z,97746.59
2022-12-25T20:45:27.789Z,97767.28
2022-12-25T20:49:32.947Z,97763.16
2022-12-25T20:53:37.834Z,97745.44
2022-12-25T20:57:42.676Z,97747.63
2022-12-25T21:01:46.359Z,97753.53
2022-12-25T21:05:52.864Z,97772.84
2022-12-25T21:09:56.029Z,97763.00
2022-12-25T21:14:00.661Z,97774.41
2022-12-25T21:18:04.266Z,97767.75
2022-12-25T21:22:07.677Z,97755.63
2022-12-25T21:26:17.172Z,97751.28
2022-12-25T21:30:21.614Z,97761.50
2022-12-25T21:34:24.910Z,97767.75
2022-12-25T21:38:28.030Z,97766.22
2022-12-25T21:42:31.611Z,97777.88
2022-12-25T21:46:36.603Z,97780.13
2022-12-25T21:50:57.136Z,97787.56
2022-12-25T21:55:00.493Z,97787.66
2022-12-25T21:59:05.921Z,97797.88
2022-12-25T22:03:10.322Z,97806.09
2022-12-25T22:07:20.375Z,97803.03
2022-12-25T22:11:41.112Z,97809.56
2022-12-25T22:16:01.589Z,97800.06
2022-12-25T22:20:08.706Z,97788.19
2022-12-25T22:24:13.733Z,97802.56
2022-12-25T22:28:16.753Z,97804.13
2022-12-25T22:32:31.111Z,97803.34
2022-12-25T22:36:36.137Z,97787.91
2022-12-25T22:40:39.238Z,97796.97
2022-12-25T22:44:42.691Z,97807.41
2022-12-25T22:48:45.751Z,97811.72
2022-12-25T22:52:50.539Z,97805.50
2022-12-25T22:56:54.385Z,97816.66
2022-12-25T23:00:57.954Z,97819.84
2022-12-25T23:05:01.369Z,97821.34
2022-12-25T23:09:07.533Z,97829.41
2022-12-25T23:13:28.277Z,97835.72
2022-12-25T23:17:49.015Z,97832.41
2022-12-25T23:22:24.203Z,97839.22
2022-12-25T23:26:28.690Z,97840.63
2022-12-25T23:30:31.907Z,97842.03
2022-12-25T23:34:35.630Z,97851.41
2022-12-25T23:38:38.984Z,97852.09
2022-12-25T23:42:43.633Z,97803.09
2022-12-25T23:46:52.728Z,97830.38
2022-12-25T23:50:56.930Z,97832.81
2022-12-25T23:55:00.018Z,97845.03
2022-12-25T23:59:05.042Z,97827.06
